createdAt,value
2017-08-07T00:01:59.072Z,12.03
2017-08-07T00:04:26.476Z,11.43
2017-08-07T00:06:53.871Z,11.47
2017-08-07T00:09:21.287Z,11.80
2017-08-07T00:11:48.684Z,11.60
2017-08-07T00:14:16.091Z,11.73
2017-08-07T00:16:43.499Z,11.93
2017-08-07T00:19:10.907Z,11.23
2017-08-07T00:21:38.319Z,11.47
2017-08-07T00:24:05.722Z,11.90
2017-08-07T00:26:33.119Z,11.30
2017-08-07T00:29:00.539Z,11.97
2017-08-07T00:31:27.935Z,11.80
2017-08-07T00:33:55.346Z,11.30
2017-08-07T00:36:22.743Z,11.73
2017-08-07T00:38:50.156Z,12.00
2017-08-07T00:41:17.555Z,12.17
2017-08-07T00:43:44.988Z,12.20
2017-08-07T00:46:12.387Z,11.73
2017-08-07T00:48:39.783Z,12.00
2017-08-07T00:51:07.192Z,11.70
2017-08-07T00:53:34.592Z,12.60
2017-08-07T00:56:01.995Z,12.07
2017-08-07T00:58:29.399Z,11.50
2017-08-07T01:00:56.811Z,11.77
2017-08-07T01:03:24.202Z,13.23
2017-08-07T01:05:51.620Z,11.87
2017-08-07T01:08:19.026Z,11.97
2017-08-07T01:10:46.427Z,11.83
2017-08-07T01:13:13.831Z,12.77
2017-08-07T01:15:41.237Z,12.40
2017-08-07T01:18:08.647Z,12.33
2017-08-07T01:20:36.042Z,12.93
2017-08-07T01:23:03.451Z,12.07
2017-08-07T01:25:31.552Z,12.20
2017-08-07T01:27:58.967Z,12.23
2017-08-07T01:30:26.367Z,12.47
2017-08-07T01:32:53.767Z,13.00
2017-08-07T01:35:21.174Z,12.07
2017-08-07T01:37:48.597Z,13.03
2017-08-07T01:40:16.021Z,12.17
2017-08-07T01:42:43.415Z,12.50
2017-08-07T01:45:10.811Z,11.90
2017-08-07T01:47:38.215Z,12.40
2017-08-07T01:50:05.618Z,11.70
2017-08-07T01:52:33.026Z,12.03
2017-08-07T01:55:00.419Z,13.37
2017-08-07T01:57:27.839Z,12.43
2017-08-07T01:59:55.237Z,12.50
2017-08-07T02:02:22.633Z,11.97
2017-08-07T02:04:50.036Z,12.90
2017-08-07T02:07:17.436Z,11.90
2017-08-07T02:09:44.839Z,12.40
2017-08-07T02:12:12.238Z,12.63
2017-08-07T02:14:39.654Z,12.97
2017-08-07T02:17:07.048Z,11.77
2017-08-07T02:19:34.455Z,12.23
2017-08-07T02:22:01.860Z,12.20
2017-08-07T02:24:29.271Z,12.10
2017-08-07T02:26:56.694Z,11.97
2017-08-07T02:29:24.118Z,12.50
2017-08-07T02:31:51.558Z,11.93
2017-08-07T02:34:18.979Z,11.47
2017-08-07T02:36:46.388Z,12.10
2017-08-07T02:39:13.799Z,12.60
2017-08-07T02:41:41.211Z,12.03
2017-08-07T02:44:08.611Z,12.47
2017-08-07T02:46:36.036Z,11.63
2017-08-07T02:49:03.437Z,11.27
2017-08-07T02:51:30.875Z,11.20
2017-08-07T02:53:58.279Z,13.53
2017-08-07T02:56:25.713Z,12.63
2017-08-07T02:58:53.112Z,11.93
2017-08-07T03:01:20.547Z,12.87
2017-08-07T03:03:47.965Z,12.50
2017-08-07T03:06:15.375Z,11.30
2017-08-07T03:08:42.783Z,11.20
2017-08-07T03:11:10.186Z,11.10
2017-08-07T03:13:37.610Z,11.77
2017-08-07T03:16:05.023Z,11.97
2017-08-07T03:18:32.447Z,11.83
2017-08-07T03:20:59.859Z,12.80
2017-08-07T03:23:27.271Z,11.70
2017-08-07T03:25:54.667Z,11.97
2017-08-07T03:28:22.074Z,11.70
2017-08-07T03:30:49.490Z,12.17
2017-08-07T03:33:16.884Z,11.73
2017-08-07T03:35:44.326Z,12.50
2017-08-07T03:38:11.721Z,12.20
2017-08-07T03:40:39.139Z,12.47
2017-08-07T03:43:06.534Z,12.10
2017-08-07T03:45:33.967Z,12.30
2017-08-07T03:48:01.359Z,12.10
2017-08-07T03:50:28.772Z,13.70
2017-08-07T03:52:56.188Z,13.77
2017-08-07T03:55:23.605Z,12.20
2017-08-07T03:57:51.012Z,12.80
2017-08-07T04:00:18.436Z,15.50
2017-08-07T04:02:45.833Z,13.13
2017-08-07T04:05:13.237Z,13.67
2017-08-07T04:07:40.664Z,13.33
2017-08-07T04:10:08.067Z,12.77
2017-08-07T04:12:35.499Z,11.70
2017-08-07T04:15:02.892Z,12.77
2017-08-07T04:17:30.300Z,12.90
2017-08-07T04:19:57.716Z,12.77
2017-08-07T04:22:25.163Z,12.97
2017-08-07T04:24:52.570Z,12.47
2017-08-07T04:27:20.039Z,12.43
2017-08-07T04:29:47.439Z,12.27
2017-08-07T04:32:14.891Z,11.53
2017-08-07T04:34:42.323Z,12.17
2017-08-07T04:37:09.752Z,13.30
2017-08-07T04:39:37.135Z,12.37
2017-08-07T04:42:04.560Z,11.50
2017-08-07T04:44:31.991Z,12.00
2017-08-07T04:46:59.423Z,11.67
2017-08-07T04:49:26.823Z,12.30
2017-08-07T04:51:54.233Z,11.97
2017-08-07T04:54:21.633Z,11.50
2017-08-07T04:56:49.040Z,12.30
2017-08-07T04:59:16.443Z,10.83
2017-08-07T05:01:43.863Z,12.77
2017-08-07T05:04:11.290Z,11.93
2017-08-07T05:06:38.682Z,11.83
2017-08-07T05:09:06.096Z,11.57
2017-08-07T05:11:33.550Z,12.60
2017-08-07T05:14:00.955Z,11.30
2017-08-07T05:16:28.370Z,11.10
2017-08-07T05:18:55.777Z,10.37
2017-08-07T05:21:23.169Z,11.60
2017-08-07T05:23:50.587Z,11.30
2017-08-07T05:26:18.003Z,11.40
2017-08-07T05:28:45.408Z,11.00
2017-08-07T05:31:12.803Z,11.53
2017-08-07T05:33:40.251Z,12.20
2017-08-07T05:36:07.647Z,11.50
2017-08-07T05:38:35.070Z,11.27
2017-08-07T05:41:02.491Z,11.23
2017-08-07T05:43:29.867Z,11.63
2017-08-07T05:45:57.276Z,11.47
2017-08-07T05:48:24.678Z,11.63
2017-08-07T05:50:52.088Z,11.80
2017-08-07T05:53:19.495Z,12.00
2017-08-07T05:55:46.907Z,10.90
2017-08-07T05:58:14.310Z,11.03
2017-08-07T06:00:41.738Z,11.10
2017-08-07T06:03:09.446Z,11.00
2017-08-07T06:05:36.857Z,11.53
2017-08-07T06:08:04.642Z,11.20
2017-08-07T06:10:32.067Z,10.67
2017-08-07T06:12:59.478Z,11.27
2017-08-07T06:15:26.879Z,10.83
2017-08-07T06:17:54.323Z,10.40
2017-08-07T06:20:21.744Z,10.93
2017-08-07T06:22:49.156Z,11.30
2017-08-07T06:25:16.555Z,10.80
2017-08-07T06:27:43.955Z,11.30
2017-08-07T06:30:11.378Z,10.97
2017-08-07T06:32:38.810Z,10.80
2017-08-07T06:35:06.244Z,10.57
2017-08-07T06:37:33.663Z,11.00
2017-08-07T06:40:16.759Z,11.00
2017-08-07T06:42:44.164Z,10.03
2017-08-07T06:45:11.605Z,10.60
2017-08-07T06:47:38.999Z,10.87
2017-08-07T06:50:06.422Z,11.57
2017-08-07T06:52:33.844Z,10.80
2017-08-07T06:55:01.249Z,10.77
2017-08-07T06:57:28.663Z,11.13
2017-08-07T06:59:56.071Z,11.20
2017-08-07T07:02:23.475Z,10.80
2017-08-07T07:04:50.900Z,11.20
2017-08-07T07:07:18.307Z,11.40
2017-08-07T07:09:45.708Z,10.37
2017-08-07T07:12:13.112Z,10.10
2017-08-07T07:14:40.536Z,11.70
2017-08-07T07:17:07.935Z,10.83
2017-08-07T07:19:35.355Z,10.63
2017-08-07T07:22:02.762Z,10.80
2017-08-07T07:24:30.158Z,9.87
2017-08-07T07:26:57.560Z,11.27
2017-08-07T07:29:24.967Z,11.10
2017-08-07T07:31:52.363Z,11.10
2017-08-07T07:34:19.794Z,10.20
2017-08-07T07:36:47.208Z,10.97
2017-08-07T07:39:14.611Z,10.60
2017-08-07T07:41:42.011Z,10.43
2017-08-07T07:44:09.423Z,10.23
2017-08-07T07:46:36.817Z,10.43
2017-08-07T07:49:04.222Z,10.57
2017-08-07T07:51:31.644Z,10.67
2017-08-07T07:53:59.023Z,10.00
2017-08-07T07:56:26.447Z,10.30
2017-08-07T07:58:53.903Z,10.40
2017-08-07T08:01:21.340Z,10.10
2017-08-07T08:03:48.756Z,10.67
2017-08-07T08:06:16.150Z,10.83
2017-08-07T08:08:43.547Z,10.20
2017-08-07T08:11:10.952Z,10.17
2017-08-07T08:13:38.354Z,10.37
2017-08-07T08:16:05.758Z,10.20
2017-08-07T08:18:33.158Z,11.03
2017-08-07T08:21:00.589Z,10.70
2017-08-07T08:23:28.006Z,11.07
2017-08-07T08:25:55.399Z,10.27
2017-08-07T08:28:22.813Z,10.60
2017-08-07T08:30:50.218Z,11.30
2017-08-07T08:33:17.654Z,11.53
2017-08-07T08:35:45.055Z,11.67
2017-08-07T08:38:12.459Z,11.37
2017-08-07T08:40:39.939Z,11.77
2017-08-07T08:43:07.354Z,10.87
2017-08-07T08:45:34.763Z,12.30
2017-08-07T08:48:02.198Z,11.50
2017-08-07T08:50:29.671Z,12.27
2017-08-07T08:52:57.099Z,12.30
2017-08-07T08:55:24.503Z,11.60
2017-08-07T08:57:51.911Z,10.80
2017-08-07T09:00:19.372Z,12.07
2017-08-07T09:02:46.772Z,11.67
2017-08-07T09:05:14.187Z,11.80
2017-08-07T09:07:41.584Z,11.43
2017-08-07T09:10:09.008Z,12.03
2017-08-07T09:12:36.453Z,12.40
2017-08-07T09:15:03.874Z,12.20
2017-08-07T09:17:31.271Z,11.83
2017-08-07T09:19:58.707Z,12.20
2017-08-07T09:22:26.153Z,11.90
2017-08-07T09:24:53.551Z,12.10
2017-08-07T09:27:20.975Z,12.17
2017-08-07T09:29:48.362Z,12.60
2017-08-07T09:32:15.815Z,11.97
2017-08-07T09:34:43.275Z,12.10
2017-08-07T09:37:10.679Z,12.73
2017-08-07T09:39:38.145Z,12.47
2017-08-07T09:42:05.544Z,11.50
2017-08-07T09:44:32.969Z,11.80
2017-08-07T09:47:00.371Z,10.80
2017-08-07T09:49:27.771Z,11.30
2017-08-07T09:51:55.196Z,12.07
2017-08-07T09:54:22.631Z,16.03
2017-08-07T09:56:50.047Z,11.87
2017-08-07T09:59:17.455Z,12.07
2017-08-07T10:01:44.877Z,12.83
2017-08-07T10:04:12.276Z,14.43
2017-08-07T10:06:39.716Z,12.37
2017-08-07T10:09:07.120Z,12.50
2017-08-07T10:11:34.592Z,12.77
2017-08-07T10:14:02.014Z,12.13
2017-08-07T10:16:29.404Z,12.40
2017-08-07T10:18:56.827Z,13.27
2017-08-07T10:21:24.227Z,12.03
2017-08-07T10:23:51.662Z,11.90
2017-08-07T10:26:19.113Z,11.80
2017-08-07T10:28:46.550Z,11.97
2017-08-07T10:31:13.933Z,13.60
2017-08-07T10:33:41.343Z,12.33
2017-08-07T10:36:08.767Z,14.20
2017-08-07T10:38:36.214Z,13.23
2017-08-07T10:41:03.639Z,13.83
2017-08-07T10:43:31.093Z,12.53
2017-08-07T10:45:58.483Z,13.40
2017-08-07T10:48:25.941Z,13.00
2017-08-07T10:50:53.416Z,12.97
2017-08-07T10:53:20.812Z,12.40
2017-08-07T10:55:48.207Z,12.73
2017-08-07T10:58:15.635Z,13.70
2017-08-07T11:00:43.075Z,13.90
2017-08-07T11:03:10.479Z,12.60
2017-08-07T11:05:37.927Z,12.93
2017-08-07T11:08:05.339Z,13.23
2017-08-07T11:10:32.767Z,13.40
2017-08-07T11:13:00.180Z,14.10
2017-08-07T11:15:27.589Z,13.00
2017-08-07T11:17:55.023Z,13.20
2017-08-07T11:20:22.499Z,12.93
2017-08-07T11:22:49.903Z,14.23
2017-08-07T11:25:17.332Z,13.17
2017-08-07T11:27:44.739Z,13.30
2017-08-07T11:30:12.131Z,14.00
2017-08-07T11:32:39.554Z,13.20
2017-08-07T11:35:06.954Z,12.97
2017-08-07T11:37:34.372Z,12.10
2017-08-07T11:40:01.771Z,12.70
2017-08-07T11:42:29.181Z,12.80
2017-08-07T11:44:56.587Z,13.37
2017-08-07T11:47:23.994Z,13.83
2017-08-07T11:49:51.431Z,14.50
2017-08-07T11:52:18.839Z,12.93
2017-08-07T11:54:46.251Z,13.37
2017-08-07T11:57:13.660Z,14.23
2017-08-07T11:59:41.068Z,12.87
2017-08-07T12:02:08.510Z,12.80
2017-08-07T12:04:35.919Z,13.03
2017-08-07T12:07:03.339Z,13.43
2017-08-07T12:09:30.739Z,13.67
2017-08-07T12:11:58.141Z,13.70
2017-08-07T12:14:25.579Z,13.43
2017-08-07T12:16:52.979Z,12.63
2017-08-07T12:19:21.202Z,12.80
2017-08-07T12:21:48.616Z,12.83
2017-08-07T12:24:16.039Z,12.63
2017-08-07T12:26:43.434Z,11.90
2017-08-07T12:29:10.844Z,12.53
2017-08-07T12:31:38.247Z,12.57
2017-08-07T12:34:05.675Z,12.50
2017-08-07T12:36:33.071Z,12.40
2017-08-07T12:39:00.505Z,12.70
2017-08-07T12:41:27.907Z,12.83
2017-08-07T12:43:55.319Z,12.83
2017-08-07T12:46:22.771Z,13.17
2017-08-07T12:48:50.162Z,12.67
2017-08-07T12:51:17.589Z,12.60
2017-08-07T12:53:44.991Z,13.90
2017-08-07T12:56:12.412Z,13.90
2017-08-07T12:58:39.823Z,13.70
2017-08-07T13:01:07.261Z,12.70
2017-08-07T13:03:34.658Z,13.40
2017-08-07T13:06:02.088Z,14.07
2017-08-07T13:08:29.486Z,12.63
2017-08-07T13:10:56.896Z,12.97
2017-08-07T13:13:24.300Z,13.77
2017-08-07T13:15:51.773Z,13.67
2017-08-07T13:18:19.179Z,13.43
2017-08-07T13:20:46.585Z,13.10
2017-08-07T13:23:13.999Z,14.07
2017-08-07T13:25:41.396Z,12.10
2017-08-07T13:28:08.803Z,12.27
2017-08-07T13:30:36.209Z,12.60
2017-08-07T13:33:03.635Z,13.97
2017-08-07T13:35:31.789Z,13.97
2017-08-07T13:37:59.199Z,13.20
2017-08-07T13:40:26.622Z,13.13
2017-08-07T13:42:54.032Z,12.57
2017-08-07T13:45:21.452Z,13.03
2017-08-07T13:47:48.859Z,12.23
2017-08-07T13:50:16.259Z,11.93
2017-08-07T13:52:43.668Z,12.27
2017-08-07T13:55:11.073Z,12.23
2017-08-07T13:57:38.539Z,11.87
2017-08-07T14:00:05.939Z,12.23
2017-08-07T14:02:33.339Z,11.73
2017-08-07T14:05:00.775Z,11.70
2017-08-07T14:07:28.183Z,11.23
2017-08-07T14:09:55.616Z,11.87
2017-08-07T14:12:23.020Z,12.00
2017-08-07T14:14:50.428Z,12.17
2017-08-07T14:17:17.827Z,11.70
2017-08-07T14:19:45.231Z,11.93
2017-08-07T14:22:12.656Z,13.03
2017-08-07T14:24:40.062Z,12.27
2017-08-07T14:27:07.463Z,11.73
2017-08-07T14:29:34.879Z,11.03
2017-08-07T14:32:02.287Z,11.27
2017-08-07T14:34:29.711Z,11.77
2017-08-07T14:36:57.123Z,11.97
2017-08-07T14:39:24.524Z,13.17
2017-08-07T14:41:51.933Z,11.73
2017-08-07T14:44:19.328Z,10.97
2017-08-07T14:46:46.730Z,12.57
2017-08-07T14:49:14.141Z,11.90
2017-08-07T14:51:41.558Z,12.27
2017-08-07T14:54:08.969Z,12.37
2017-08-07T14:56:36.367Z,11.63
2017-08-07T14:59:03.788Z,12.20
2017-08-07T15:01:31.188Z,11.83
2017-08-07T15:03:58.595Z,12.93
2017-08-07T15:06:26.013Z,11.33
2017-08-07T15:08:53.418Z,10.77
2017-08-07T15:11:20.836Z,11.50
2017-08-07T15:13:48.251Z,11.90
2017-08-07T15:16:15.654Z,11.00
2017-08-07T15:18:43.058Z,11.87
2017-08-07T15:21:10.468Z,10.90
2017-08-07T15:23:37.868Z,11.63
2017-08-07T15:26:05.295Z,12.57
2017-08-07T15:28:32.711Z,11.63
2017-08-07T15:31:00.131Z,12.70
2017-08-07T15:33:27.543Z,11.67
2017-08-07T15:35:54.947Z,11.10
2017-08-07T15:38:22.355Z,12.17
2017-08-07T15:40:49.772Z,11.50
2017-08-07T15:43:17.206Z,11.80
2017-08-07T15:45:44.605Z,12.40
2017-08-07T15:48:12.016Z,12.33
2017-08-07T15:50:39.427Z,11.63
2017-08-07T15:53:06.827Z,11.40
2017-08-07T15:55:34.243Z,11.57
2017-08-07T15:58:01.649Z,11.00
2017-08-07T16:00:29.056Z,10.90
2017-08-07T16:02:56.461Z,12.23
2017-08-07T16:05:23.872Z,12.00
2017-08-07T16:07:51.292Z,11.90
2017-08-07T16:10:18.691Z,11.10
2017-08-07T16:12:46.092Z,10.90
2017-08-07T16:15:13.511Z,11.17
2017-08-07T16:17:40.914Z,10.73
2017-08-07T16:20:08.319Z,12.10
2017-08-07T16:22:35.733Z,11.20
2017-08-07T16:25:03.139Z,11.37
2017-08-07T16:27:30.553Z,11.30
2017-08-07T16:30:01.819Z,11.40
2017-08-07T16:32:29.221Z,11.63
2017-08-07T16:34:56.635Z,12.73
2017-08-07T16:37:24.045Z,12.03
2017-08-07T16:39:51.471Z,11.43
2017-08-07T16:42:18.878Z,10.83
2017-08-07T16:44:46.295Z,10.73
2017-08-07T16:47:13.703Z,16.17
2017-08-07T16:49:41.104Z,23.53
2017-08-07T16:52:08.510Z,19.07
2017-08-07T16:54:35.910Z,12.73
2017-08-07T16:57:03.339Z,12.17
2017-08-07T16:59:30.744Z,11.90
2017-08-07T17:01:58.155Z,12.37
2017-08-07T17:04:25.554Z,11.40
2017-08-07T17:06:52.974Z,12.80
2017-08-07T17:09:20.367Z,12.27
2017-08-07T17:11:47.787Z,12.30
2017-08-07T17:14:15.181Z,11.70
2017-08-07T17:16:42.599Z,11.60
2017-08-07T17:19:10.000Z,11.70
2017-08-07T17:21:37.407Z,11.87
2017-08-07T17:24:04.820Z,11.43
2017-08-07T17:26:32.216Z,10.13
2017-08-07T17:28:59.624Z,10.30
2017-08-07T17:31:27.032Z,10.60
2017-08-07T17:33:54.444Z,11.27
2017-08-07T17:36:21.843Z,11.27
2017-08-07T17:38:49.255Z,11.20
2017-08-07T17:41:16.659Z,10.60
2017-08-07T17:43:44.075Z,10.77
2017-08-07T17:46:11.467Z,9.50
2017-08-07T17:48:38.868Z,10.70
2017-08-07T17:51:06.271Z,10.10
2017-08-07T17:53:33.672Z,12.43
2017-08-07T17:56:01.076Z,11.03
2017-08-07T17:58:29.413Z,13.37
2017-08-07T18:00:56.820Z,12.10
2017-08-07T18:03:24.220Z,12.13
2017-08-07T18:05:51.636Z,12.33
2017-08-07T18:08:19.032Z,11.43
2017-08-07T18:10:46.444Z,10.57
2017-08-07T18:13:13.844Z,11.07
2017-08-07T18:15:41.254Z,11.60
2017-08-07T18:18:08.660Z,11.80
2017-08-07T18:20:36.059Z,9.83
2017-08-07T18:23:04.258Z,13.03
2017-08-07T18:25:31.655Z,10.90
2017-08-07T18:27:59.080Z,11.33
2017-08-07T18:30:26.479Z,11.10
2017-08-07T18:32:53.891Z,12.47
2017-08-07T18:35:21.295Z,11.13
2017-08-07T18:37:48.699Z,10.93
2017-08-07T18:40:16.104Z,11.40
2017-08-07T18:42:43.499Z,11.17
2017-08-07T18:45:10.904Z,10.63
2017-08-07T18:47:38.313Z,11.93
2017-08-07T18:50:05.715Z,12.13
2017-08-07T18:52:33.116Z,11.70
2017-08-07T18:55:00.520Z,11.90
2017-08-07T18:57:27.931Z,11.23
2017-08-07T18:59:55.337Z,12.23
2017-08-07T19:02:22.747Z,12.20
2017-08-07T19:04:50.152Z,14.13
2017-08-07T19:07:17.560Z,13.67
2017-08-07T19:09:44.955Z,12.70
2017-08-07T19:12:12.371Z,12.73
2017-08-07T19:14:39.772Z,12.37
2017-08-07T19:17:07.171Z,12.53
2017-08-07T19:19:34.576Z,12.50
2017-08-07T19:22:01.980Z,11.80
2017-08-07T19:24:29.384Z,12.90
2017-08-07T19:26:56.787Z,11.57
2017-08-07T19:29:24.200Z,13.17
2017-08-07T19:31:51.604Z,14.20
2017-08-07T19:34:19.019Z,12.37
2017-08-07T19:36:46.420Z,13.57
2017-08-07T19:39:13.824Z,12.30
2017-08-07T19:41:41.231Z,13.83
2017-08-07T19:44:08.631Z,12.83
2017-08-07T19:46:36.040Z,12.20
2017-08-07T19:49:03.444Z,13.27
2017-08-07T19:51:30.854Z,12.50
2017-08-07T19:53:58.256Z,12.83
2017-08-07T19:56:25.653Z,12.80
2017-08-07T19:58:53.055Z,11.30
2017-08-07T20:01:20.463Z,12.10
2017-08-07T20:03:47.867Z,10.77
2017-08-07T20:06:15.273Z,12.20
2017-08-07T20:08:42.684Z,12.80
2017-08-07T20:11:10.088Z,11.20
2017-08-07T20:13:37.493Z,12.40
2017-08-07T20:16:04.895Z,12.40
2017-08-07T20:18:32.302Z,11.20
2017-08-07T20:20:59.716Z,12.20
2017-08-07T20:23:27.120Z,12.13
2017-08-07T20:25:54.520Z,12.03
2017-08-07T20:28:21.931Z,11.03
2017-08-07T20:30:49.343Z,11.60
2017-08-07T20:33:16.749Z,11.87
2017-08-07T20:35:44.155Z,12.03
2017-08-07T20:38:11.551Z,12.50
2017-08-07T20:40:38.958Z,13.20
2017-08-07T20:43:06.369Z,13.00
2017-08-07T20:45:33.763Z,12.77
2017-08-07T20:48:01.176Z,12.67
2017-08-07T20:50:28.588Z,13.37
2017-08-07T20:52:56.004Z,13.00
2017-08-07T20:55:23.407Z,12.73
2017-08-07T20:57:50.820Z,13.37
2017-08-07T21:00:18.233Z,13.47
2017-08-07T21:02:45.627Z,12.67
2017-08-07T21:05:13.039Z,13.90
2017-08-07T21:07:40.448Z,13.73
2017-08-07T21:10:07.847Z,14.17
2017-08-07T21:12:35.256Z,13.57
2017-08-07T21:15:02.651Z,13.53
2017-08-07T21:17:30.057Z,13.13
2017-08-07T21:19:57.459Z,13.93
2017-08-07T21:22:24.858Z,12.67
2017-08-07T21:24:52.284Z,12.30
2017-08-07T21:27:19.690Z,11.17
2017-08-07T21:29:47.112Z,11.53
2017-08-07T21:32:14.507Z,12.37
2017-08-07T21:34:41.904Z,12.60
2017-08-07T21:37:09.319Z,12.40
2017-08-07T21:39:36.723Z,11.77
2017-08-07T21:42:04.123Z,12.33
2017-08-07T21:44:31.523Z,12.57
2017-08-07T21:46:58.922Z,12.40
2017-08-07T21:49:26.335Z,12.43
2017-08-07T21:51:53.735Z,12.37
2017-08-07T21:54:21.152Z,13.23
2017-08-07T21:56:48.555Z,12.97
2017-08-07T21:59:15.962Z,12.63
2017-08-07T22:01:43.358Z,12.70
2017-08-07T22:04:10.764Z,12.70
2017-08-07T22:06:38.176Z,12.40
2017-08-07T22:09:05.583Z,13.43
2017-08-07T22:11:32.991Z,12.80
2017-08-07T22:14:00.392Z,12.80
2017-08-07T22:16:27.947Z,12.97
2017-08-07T22:18:55.347Z,13.50
2017-08-07T22:21:22.752Z,12.30
2017-08-07T22:23:50.155Z,12.17
2017-08-07T22:26:17.555Z,13.17
2017-08-07T22:28:44.965Z,12.80
2017-08-07T22:31:12.356Z,13.53
2017-08-07T22:33:39.781Z,12.53
2017-08-07T22:36:07.187Z,12.60
2017-08-07T22:38:34.583Z,12.07
2017-08-07T22:41:01.995Z,12.10
2017-08-07T22:43:29.399Z,12.37
2017-08-07T22:45:56.807Z,12.33
2017-08-07T22:48:24.216Z,12.70
2017-08-07T22:50:51.632Z,13.23
2017-08-07T22:53:19.039Z,12.00
2017-08-07T22:55:46.445Z,12.63
2017-08-07T22:58:13.843Z,12.93
2017-08-07T23:00:41.493Z,13.00
2017-08-07T23:03:08.888Z,12.63
2017-08-07T23:05:36.290Z,12.57
2017-08-07T23:08:03.746Z,12.00
2017-08-07T23:10:31.145Z,12.27
2017-08-07T23:12:58.536Z,12.70
2017-08-07T23:15:25.940Z,12.23
2017-08-07T23:17:53.338Z,11.87
2017-08-07T23:20:20.755Z,12.07
2017-08-07T23:22:48.151Z,12.83
2017-08-07T23:25:15.566Z,12.03
2017-08-07T23:27:42.962Z,12.27
2017-08-07T23:30:10.371Z,12.50
2017-08-07T23:32:37.770Z,12.37
2017-08-07T23:35:05.167Z,14.80
2017-08-07T23:37:32.567Z,12.73
2017-08-07T23:39:59.967Z,12.80
2017-08-07T23:42:27.391Z,12.90
2017-08-07T23:44:54.786Z,12.20
2017-08-07T23:47:22.186Z,12.20
2017-08-07T23:49:49.583Z,12.93
2017-08-07T23:52:16.983Z,12.30
2017-08-07T23:54:44.393Z,13.80
2017-08-07T23:57:11.784Z,13.00
2017-08-07T23:59:39.208Z,15.57
